デリー の空港の天気 - METARとTAF

インディラ・ガンディー国際空港 ( VIDP / DEL ) - インド デリー
飛行場実況気象(Metar)
観測時間10/22 17:00 IST (10/22 11:30 UTC)
風向・風速静穏 0m/s
視程2200m
天気現象煙霧
全天の4割程度の雲 雲底高度 1220m
全天の8割程度の雲 雲底高度 3050m
気温31℃
湿度31%
気圧1006hPa
METARVIDP 221130Z 00000KT 2200 HZ SCT040 BKN100 31/12 Q1006 NOSIG
過去の天気等 Google飛行場航空写真 Wunderground天気予報

過去48時間のMETAR

飛行場予報(TAF)
発表時間: 10/22 10:30 IST (10/22 05:00 UTC)
予報対象時間: 22日11時 IST ~ 23日17時 IST
風向・風速南東 3m/s
視程1500m
天気現象
少しの雲 雲底高度 1220m
全天の8割程度の雲 雲底高度 3050m
22日15時 IST ~ 22日17時 IST に徐々に
風向・風速東 3m/s
視程2000m
天気現象
22日23時 IST ~ 23日1時 IST に徐々に
風向・風速南東 3m/s
視程1800m
天気現象煙 もや
23日4時 IST ~ 23日6時 IST に徐々に
風向・風速静穏
視程1500m
天気現象もや
23日15時 IST ~ 23日17時 IST に徐々に
風向・風速東 3m/s
視程3000m
天気現象煙霧
TAF VIDP 220500Z 2206/2312 14005KT 1500 FU FEW040 BKN100
BECMG 2210/2212 09005KT 2000 FU
BECMG 2218/2220 14005KT 1800 FU BR
BECMG 2223/2301 00000KT 1500 BR 2304/2306 VRB02KT 2500 HZ FEW100
BECMG 2310/2312 09006KT 3000 HZ